Time;durP1;ratioP1;P1;durP2;ratioP2;P2;SDS_P1;SDS_P2;PMS_P1;PMS_P2;Temp;Humidity;BMP_temperature;BMP_pressure;BME280_temperature;BME280_humidity;BME280_pressure;Samples;Min_cycle;Max_cycle;Signal;HPM_P1;HPM_P2
2021/09/08 00:19:02;;;;;;;4.80;2.30;;;;;;;;;;4116118;32;20093;-73
2021/09/08 00:21:28;;;;;;;4.50;2.00;;;;;;;;;;4162011;34;20111;-73
2021/09/08 00:23:54;;;;;;;1.98;1.73;;;;;;;;;;4174123;34;20105;-73
2021/09/08 00:26:20;;;;;;;3.75;2.22;;;;;;;;;;4163225;34;20114;-74
2021/09/08 00:28:46;;;;;;;2.25;1.85;;;;;;;;;;4165411;34;20522;-74
2021/09/08 00:31:12;;;;;;;2.12;1.80;;;;;;;;;;4162701;34;20541;-69
2021/09/08 00:33:38;;;;;;;2.25;1.83;;;;;;;;;;4150190;34;20111;-68
2021/09/08 00:36:04;;;;;;;3.87;2.15;;;;;;;;;;4175209;34;20480;-68
2021/09/08 00:38:30;;;;;;;3.10;1.87;;;;;;;;;;4176098;34;20594;-68
2021/09/08 00:40:56;;;;;;;3.03;2.00;;;;;;;;;;4176145;34;20557;-73
2021/09/08 00:43:22;;;;;;;4.72;2.10;;;;;;;;;;4176353;34;20226;-73
2021/09/08 00:45:53;;;;;;;2.75;1.85;;;;;;;;;;4163511;34;20481;-68
2021/09/08 00:48:19;;;;;;;4.12;1.83;;;;;;;;;;4174761;34;20268;-73
2021/09/08 00:50:46;;;;;;;3.80;2.00;;;;;;;;;;4174818;34;20213;-73
2021/09/08 00:53:12;;;;;;;2.72;1.90;;;;;;;;;;4172176;34;20127;-68
2021/09/08 00:55:38;;;;;;;2.22;2.03;;;;;;;;;;4163406;34;20102;-68
2021/09/08 00:58:04;;;;;;;4.20;2.45;;;;;;;;;;4163700;34;20203;-68
2021/09/08 01:00:30;;;;;;;3.10;1.85;;;;;;;;;;4152190;34;20118;-68
2021/09/08 01:02:56;;;;;;;4.30;1.85;;;;;;;;;;4152135;34;20775;-68
2021/09/08 01:05:24;;;;;;;3.05;2.17;;;;;;;;;;4164818;34;20612;-68
2021/09/08 01:07:50;;;;;;;2.97;2.17;;;;;;;;;;4168697;34;20194;-68
2021/09/08 01:10:15;;;;;;;5.53;2.25;;;;;;;;;;4165569;34;20561;-68
2021/09/08 01:12:42;;;;;;;4.03;2.00;;;;;;;;;;4178214;34;20463;-72
2021/09/08 01:15:08;;;;;;;3.10;1.77;;;;;;;;;;4176696;34;20136;-73
2021/09/08 01:17:34;;;;;;;2.72;1.83;;;;;;;;;;4181707;34;20461;-68
2021/09/08 01:20:00;;;;;;;2.37;1.70;;;;;;;;;;4179295;34;20122;-72
2021/09/08 01:22:30;;;;;;;3.17;2.00;;;;;;;;;;4179138;34;20118;-73
2021/09/08 01:24:56;;;;;;;5.20;2.03;;;;;;;;;;4178894;34;20122;-72
2021/09/08 01:27:24;;;;;;;3.55;2.12;;;;;;;;;;4192094;34;20118;-72
2021/09/08 01:29:49;;;;;;;5.40;2.17;;;;;;;;;;4191596;34;20118;-73
2021/09/08 01:32:16;;;;;;;3.20;2.10;;;;;;;;;;4178974;34;20532;-73
2021/09/08 01:34:41;;;;;;;2.62;1.87;;;;;;;;;;4178799;34;20117;-73
2021/09/08 01:37:09;;;;;;;4.53;2.47;;;;;;;;;;4191792;34;20137;-73
2021/09/08 01:39:35;;;;;;;5.87;2.20;;;;;;;;;;4191736;34;20218;-72
2021/09/08 01:42:01;;;;;;;2.85;2.20;;;;;;;;;;4191430;34;20118;-72
2021/09/08 01:44:27;;;;;;;7.07;2.50;;;;;;;;;;4178660;34;20677;-70
2021/09/08 01:46:55;;;;;;;3.17;1.90;;;;;;;;;;4178586;34;20113;-70
2021/09/08 01:49:20;;;;;;;2.72;1.80;;;;;;;;;;4191511;34;20554;-73
2021/09/08 01:51:46;;;;;;;3.97;2.25;;;;;;;;;;4191434;34;20140;-73
2021/09/08 01:54:12;;;;;;;3.85;2.10;;;;;;;;;;4178813;34;20525;-73
2021/09/08 01:56:38;;;;;;;4.95;2.00;;;;;;;;;;4177780;34;20546;-73
2021/09/08 01:59:04;;;;;;;3.83;2.30;;;;;;;;;;4164923;34;20154;-68
2021/09/08 02:01:30;;;;;;;6.25;2.25;;;;;;;;;;4165164;34;20231;-68
2021/09/08 02:03:56;;;;;;;3.58;2.05;;;;;;;;;;4177410;34;20186;-68
2021/09/08 02:06:27;;;;;;;6.65;2.47;;;;;;;;;;4177672;34;20107;-71
2021/09/08 02:08:54;;;;;;;4.18;2.10;;;;;;;;;;4165005;34;20172;-72
2021/09/08 02:11:20;;;;;;;3.40;2.33;;;;;;;;;;4177699;34;20121;-70
2021/09/08 02:13:47;;;;;;;2.37;1.95;;;;;;;;;;4165165;34;20102;-73
2021/09/08 02:16:25;;;;;;;3.95;2.10;;;;;;;;;;4165093;34;20125;-71
2021/09/08 02:18:52;;;;;;;11.25;3.03;;;;;;;;;;4165435;34;20111;-69
2021/09/08 02:21:19;;;;;;;3.83;2.17;;;;;;;;;;4173529;34;20202;-68
2021/09/08 02:23:45;;;;;;;2.78;2.05;;;;;;;;;;4170979;34;20111;-68
2021/09/08 02:26:11;;;;;;;3.30;2.05;;;;;;;;;;4168172;34;20174;-71
2021/09/08 02:28:40;;;;;;;4.68;2.65;;;;;;;;;;4163104;34;20113;-70
2021/09/08 02:31:06;;;;;;;6.12;1.77;;;;;;;;;;4171871;34;20111;-70
2021/09/08 02:33:32;;;;;;;3.83;2.47;;;;;;;;;;4169925;34;20176;-70
2021/09/08 02:36:02;;;;;;;3.92;2.12;;;;;;;;;;4161724;34;20142;-71
2021/09/08 02:38:33;;;;;;;6.37;2.37;;;;;;;;;;4174489;34;20178;-67
2021/09/08 02:41:00;;;;;;;3.53;2.03;;;;;;;;;;4169497;34;20147;-64
2021/09/08 02:43:28;;;;;;;5.90;2.40;;;;;;;;;;4163965;34;20133;-65
2021/09/08 02:45:54;;;;;;;3.22;2.40;;;;;;;;;;4172453;34;20518;-66
2021/09/08 02:48:21;;;;;;;6.50;2.40;;;;;;;;;;4176168;34;20614;-66
2021/09/08 02:50:47;;;;;;;6.65;2.20;;;;;;;;;;4153434;34;20125;-64
2021/09/08 02:53:13;;;;;;;5.00;2.80;;;;;;;;;;4175922;34;20500;-68
2021/09/08 02:55:39;;;;;;;4.60;2.20;;;;;;;;;;4177149;34;20106;-65
2021/09/08 02:58:05;;;;;;;5.70;2.22;;;;;;;;;;4175664;34;20103;-65
2021/09/08 03:00:31;;;;;;;2.85;2.00;;;;;;;;;;4176912;34;20118;-65
2021/09/08 03:02:57;;;;;;;3.42;2.20;;;;;;;;;;4172857;34;20107;-64
2021/09/08 03:05:23;;;;;;;5.62;2.42;;;;;;;;;;4163953;34;20446;-65
2021/09/08 03:07:49;;;;;;;5.70;2.08;;;;;;;;;;4175138;34;20164;-66
2021/09/08 03:10:15;;;;;;;5.50;2.28;;;;;;;;;;4175441;34;20335;-66
2021/09/08 03:12:41;;;;;;;5.72;2.50;;;;;;;;;;4177179;34;20218;-67
2021/09/08 03:15:08;;;;;;;3.08;2.20;;;;;;;;;;4177176;34;20101;-66
2021/09/08 03:17:34;;;;;;;10.88;2.50;;;;;;;;;;4178160;34;20102;-64
2021/09/08 03:20:00;;;;;;;3.62;1.85;;;;;;;;;;4179625;34;20109;-64
2021/09/08 03:22:26;;;;;;;7.75;2.35;;;;;;;;;;4164481;34;20133;-64
2021/09/08 03:24:52;;;;;;;7.55;2.62;;;;;;;;;;4164209;34;20525;-64
2021/09/08 03:27:18;;;;;;;7.43;3.00;;;;;;;;;;4152822;34;20214;-64
2021/09/08 03:29:45;;;;;;;3.15;2.20;;;;;;;;;;4177238;34;20481;-65
2021/09/08 03:32:11;;;;;;;5.75;2.87;;;;;;;;;;4164463;34;20091;-66
2021/09/08 03:34:37;;;;;;;4.32;2.40;;;;;;;;;;4177089;34;20543;-66
2021/09/08 03:37:03;;;;;;;11.45;2.50;;;;;;;;;;4166593;34;20548;-68
2021/09/08 03:39:29;;;;;;;2.85;2.10;;;;;;;;;;4177216;34;20110;-69
2021/09/08 03:41:55;;;;;;;3.87;2.15;;;;;;;;;;4184372;34;20115;-69
2021/09/08 03:44:21;;;;;;;8.07;2.65;;;;;;;;;;4177211;34;20118;-68
2021/09/08 03:46:47;;;;;;;8.88;2.80;;;;;;;;;;4190262;34;20118;-68
2021/09/08 03:49:13;;;;;;;4.05;2.30;;;;;;;;;;4189290;34;20230;-66
2021/09/08 03:51:39;;;;;;;7.70;2.30;;;;;;;;;;4189720;34;20130;-66
2021/09/08 03:54:05;;;;;;;5.95;2.42;;;;;;;;;;4190332;34;20098;-66
2021/09/08 03:56:31;;;;;;;6.90;2.50;;;;;;;;;;4187720;34;20111;-65
2021/09/08 03:59:02;;;;;;;5.07;2.28;;;;;;;;;;4184961;34;20538;-65
2021/09/08 04:01:28;;;;;;;7.37;2.40;;;;;;;;;;4181260;34;20221;-65
2021/09/08 04:03:54;;;;;;;13.57;3.40;;;;;;;;;;4180657;34;20110;-64
2021/09/08 04:06:20;;;;;;;18.95;3.00;;;;;;;;;;4167818;34;20236;-66
2021/09/08 04:08:47;;;;;;;5.05;2.22;;;;;;;;;;4181513;34;21128;-66
2021/09/08 04:11:13;;;;;;;6.65;2.35;;;;;;;;;;4180489;34;20133;-66
2021/09/08 04:13:39;;;;;;;6.78;1.98;;;;;;;;;;4180018;34;20130;-66
2021/09/08 04:16:08;;;;;;;5.53;2.08;;;;;;;;;;4166874;34;20214;-66
2021/09/08 04:18:34;;;;;;;5.55;2.20;;;;;;;;;;4167877;34;20203;-66
2021/09/08 04:21:00;;;;;;;5.62;2.12;;;;;;;;;;4168668;34;20103;-67
2021/09/08 04:23:26;;;;;;;5.90;2.40;;;;;;;;;;4167844;34;20116;-66
2021/09/08 04:25:52;;;;;;;5.03;2.33;;;;;;;;;;4169766;34;20118;-66
2021/09/08 04:28:18;;;;;;;7.03;2.67;;;;;;;;;;4183108;34;20083;-67
2021/09/08 04:30:44;;;;;;;4.75;2.47;;;;;;;;;;4170834;34;20205;-66
2021/09/08 04:33:10;;;;;;;8.68;2.30;;;;;;;;;;4184250;34;20129;-61
2021/09/08 04:35:36;;;;;;;4.22;2.35;;;;;;;;;;4184003;34;20205;-67
2021/09/08 04:38:02;;;;;;;5.68;2.30;;;;;;;;;;4184145;34;20666;-63
2021/09/08 04:40:28;;;;;;;3.08;2.10;;;;;;;;;;4185175;34;20102;-64
2021/09/08 04:42:54;;;;;;;9.80;2.67;;;;;;;;;;4184779;34;20486;-64
2021/09/08 04:45:21;;;;;;;3.35;1.90;;;;;;;;;;4169709;34;20554;-65
2021/09/08 04:47:47;;;;;;;4.60;1.90;;;;;;;;;;4178308;34;20126;-66
2021/09/08 04:50:14;;;;;;;4.25;2.50;;;;;;;;;;4165913;34;20106;-67
2021/09/08 04:52:40;;;;;;;3.40;2.05;;;;;;;;;;4165481;34;20559;-66
2021/09/08 04:55:07;;;;;;;3.08;2.10;;;;;;;;;;4165503;34;20094;-66
2021/09/08 04:57:33;;;;;;;3.08;2.20;;;;;;;;;;4178011;34;20186;-65
2021/09/08 04:59:59;;;;;;;3.28;2.15;;;;;;;;;;4178270;34;20114;-66
2021/09/08 05:02:25;;;;;;;3.80;2.28;;;;;;;;;;4165582;34;20454;-66
2021/09/08 05:04:51;;;;;;;4.20;2.05;;;;;;;;;;4189500;34;20232;-66
2021/09/08 05:07:17;;;;;;;3.12;2.53;;;;;;;;;;4173687;34;20133;-67
2021/09/08 05:09:43;;;;;;;3.92;2.10;;;;;;;;;;4182807;34;20134;-66
2021/09/08 05:12:10;;;;;;;6.62;2.80;;;;;;;;;;4184257;34;20117;-66
2021/09/08 05:14:36;;;;;;;4.47;2.30;;;;;;;;;;4183410;34;20431;-66
2021/09/08 05:17:05;;;;;;;5.68;2.47;;;;;;;;;;4183328;34;20105;-66
2021/09/08 05:19:32;;;;;;;5.00;1.98;;;;;;;;;;4183229;34;20182;-66
2021/09/08 05:21:58;;;;;;;4.03;2.42;;;;;;;;;;4170636;34;20098;-65
2021/09/08 05:24:24;;;;;;;4.18;2.85;;;;;;;;;;4183631;34;20113;-65
2021/09/08 05:26:50;;;;;;;6.90;2.22;;;;;;;;;;4184087;34;20550;-65
2021/09/08 05:29:19;;;;;;;4.82;2.20;;;;;;;;;;4171225;34;20083;-66
2021/09/08 05:31:45;;;;;;;6.30;2.65;;;;;;;;;;4170671;34;20116;-65
2021/09/08 05:34:11;;;;;;;5.62;2.45;;;;;;;;;;4184559;34;20086;-65
2021/09/08 05:36:37;;;;;;;9.93;3.10;;;;;;;;;;4170397;34;20114;-65
2021/09/08 05:39:03;;;;;;;7.55;2.30;;;;;;;;;;4182903;34;20446;-65
2021/09/08 05:41:29;;;;;;;5.10;2.50;;;;;;;;;;4171829;34;20113;-66
2021/09/08 05:43:55;;;;;;;5.40;2.65;;;;;;;;;;4183367;34;20119;-65
2021/09/08 05:46:21;;;;;;;10.55;2.60;;;;;;;;;;4170737;34;20094;-65
2021/09/08 05:48:47;;;;;;;3.00;2.00;;;;;;;;;;4184105;34;20229;-65
2021/09/08 05:51:13;;;;;;;5.78;1.90;;;;;;;;;;4170123;34;20114;-65
2021/09/08 05:53:39;;;;;;;7.47;2.50;;;;;;;;;;4184599;34;20130;-65
2021/09/08 05:56:05;;;;;;;4.70;2.58;;;;;;;;;;4183292;34;20122;-65
2021/09/08 05:58:31;;;;;;;10.55;4.20;;;;;;;;;;4183992;34;20128;-65
2021/09/08 06:00:57;;;;;;;3.90;2.30;;;;;;;;;;4183164;34;20582;-65
2021/09/08 06:03:22;;;;;;;3.30;2.20;;;;;;;;;;4183197;34;20198;-64
2021/09/08 06:05:50;;;;;;;7.78;2.30;;;;;;;;;;4184057;34;20114;-63
2021/09/08 06:08:16;;;;;;;3.80;2.25;;;;;;;;;;4171972;34;20215;-64
2021/09/08 06:10:42;;;;;;;7.80;2.50;;;;;;;;;;4188772;34;20527;-64
2021/09/08 06:13:08;;;;;;;7.28;2.50;;;;;;;;;;4170310;34;20137;-64
2021/09/08 06:15:35;;;;;;;9.93;2.85;;;;;;;;;;4181464;34;20111;-64
2021/09/08 06:18:02;;;;;;;6.80;2.40;;;;;;;;;;4182661;34;20118;-64
2021/09/08 06:20:29;;;;;;;6.60;2.80;;;;;;;;;;4175689;34;20106;-66
2021/09/08 06:22:56;;;;;;;4.25;2.60;;;;;;;;;;4178560;34;20106;-66
2021/09/08 06:25:22;;;;;;;7.62;2.65;;;;;;;;;;4190762;34;20110;-64
2021/09/08 06:27:48;;;;;;;3.58;2.50;;;;;;;;;;4163410;34;20145;-66
2021/09/08 06:30:14;;;;;;;6.00;2.28;;;;;;;;;;4189886;34;20526;-66
2021/09/08 06:32:39;;;;;;;3.42;2.35;;;;;;;;;;4188806;34;20219;-66
2021/09/08 06:35:06;;;;;;;7.25;2.47;;;;;;;;;;4189027;34;20122;-67
2021/09/08 06:37:32;;;;;;;11.93;2.53;;;;;;;;;;4188842;34;20544;-67
2021/09/08 06:39:58;;;;;;;7.00;2.60;;;;;;;;;;4189217;34;20608;-66
2021/09/08 06:42:24;;;;;;;7.43;2.62;;;;;;;;;;4168564;34;20141;-66
2021/09/08 06:44:53;;;;;;;7.90;2.33;;;;;;;;;;4162946;34;20127;-65
2021/09/08 06:47:20;;;;;;;2.75;2.12;;;;;;;;;;4177199;34;20194;-68
2021/09/08 06:49:47;;;;;;;9.73;2.55;;;;;;;;;;4177420;34;20108;-68
2021/09/08 06:52:13;;;;;;;6.15;2.65;;;;;;;;;;4176968;34;20149;-67
2021/09/08 06:54:46;;;;;;;7.22;2.67;;;;;;;;;;4180047;34;20486;-67
2021/09/08 06:57:14;;;;;;;3.90;2.50;;;;;;;;;;4174875;34;20648;-66
2021/09/08 06:59:40;;;;;;;9.00;2.40;;;;;;;;;;4188668;34;20233;-66
2021/09/08 07:02:07;;;;;;;6.28;2.40;;;;;;;;;;4189963;34;20571;-66
2021/09/08 07:04:33;;;;;;;7.03;2.40;;;;;;;;;;4187557;34;20117;-68
2021/09/08 07:06:59;;;;;;;6.30;2.90;;;;;;;;;;4173830;34;20144;-65
2021/09/08 07:09:25;;;;;;;10.23;4.32;;;;;;;;;;4190901;34;20106;-66
2021/09/08 07:11:51;;;;;;;3.17;2.30;;;;;;;;;;4190704;34;20138;-67
2021/09/08 07:14:16;;;;;;;6.80;2.50;;;;;;;;;;4177771;34;20106;-67
2021/09/08 07:16:42;;;;;;;5.28;2.47;;;;;;;;;;4178023;34;20114;-67
2021/09/08 07:19:08;;;;;;;5.47;2.37;;;;;;;;;;4175442;34;20118;-66
2021/09/08 07:21:34;;;;;;;5.43;2.42;;;;;;;;;;4161048;34;20295;-67
2021/09/08 07:24:00;;;;;;;5.43;2.33;;;;;;;;;;4169954;34;20126;-68
2021/09/08 07:26:32;;;;;;;3.30;2.50;;;;;;;;;;4168492;34;20126;-68
2021/09/08 07:29:00;;;;;;;5.53;2.90;;;;;;;;;;4167753;34;20397;-65
2021/09/08 07:31:27;;;;;;;8.70;2.85;;;;;;;;;;4166237;34;20234;-66
2021/09/08 07:33:53;;;;;;;6.93;3.30;;;;;;;;;;4165525;34;20121;-65
2021/09/08 07:36:20;;;;;;;5.55;2.42;;;;;;;;;;4166017;34;20126;-66
2021/09/08 07:38:47;;;;;;;3.97;2.70;;;;;;;;;;4170228;34;20566;-65
2021/09/08 07:41:15;;;;;;;4.55;2.53;;;;;;;;;;4171224;34;20465;-68
2021/09/08 07:43:41;;;;;;;3.22;2.40;;;;;;;;;;4167944;34;20107;-68
2021/09/08 07:46:07;;;;;;;5.03;2.60;;;;;;;;;;4166646;34;20222;-68
2021/09/08 07:48:33;;;;;;;5.32;2.50;;;;;;;;;;4168889;34;20197;-68
2021/09/08 07:50:59;;;;;;;5.15;3.05;;;;;;;;;;4169045;34;20591;-66
2021/09/08 07:53:25;;;;;;;6.43;3.37;;;;;;;;;;4162221;34;20110;-67
2021/09/08 07:55:51;;;;;;;3.37;2.45;;;;;;;;;;4168313;34;20272;-67
2021/09/08 07:58:17;;;;;;;7.37;2.62;;;;;;;;;;4162317;34;20528;-66
2021/09/08 08:00:43;;;;;;;4.37;3.03;;;;;;;;;;4171685;34;20201;-67
2021/09/08 08:03:08;;;;;;;7.30;2.60;;;;;;;;;;4177761;34;20122;-65
2021/09/08 08:05:35;;;;;;;6.82;2.33;;;;;;;;;;4185660;34;20204;-66
2021/09/08 08:08:01;;;;;;;3.95;2.30;;;;;;;;;;4175633;34;20555;-64
2021/09/08 08:10:28;;;;;;;5.03;2.58;;;;;;;;;;4172097;34;20193;-64
2021/09/08 08:12:56;;;;;;;4.37;2.40;;;;;;;;;;4171932;34;20126;-65
2021/09/08 08:15:23;;;;;;;6.70;3.50;;;;;;;;;;4171217;34;20787;-67
2021/09/08 08:17:49;;;;;;;3.72;2.12;;;;;;;;;;4174720;34;20482;-67
2021/09/08 08:21:09;;;;;;;6.78;2.30;;;;;;;;;;4172514;34;20208;-67
2021/09/08 08:24:15;;;;;;;7.07;2.90;;;;;;;;;;4165540;34;20149;-66
2021/09/08 08:26:41;;;;;;;5.03;2.58;;;;;;;;;;4200098;34;20136;-67
2021/09/08 08:29:07;;;;;;;8.13;3.17;;;;;;;;;;4204524;34;20547;-67
2021/09/08 08:31:33;;;;;;;5.15;2.90;;;;;;;;;;4195411;34;20152;-67
2021/09/08 08:33:59;;;;;;;4.32;2.55;;;;;;;;;;4196182;34;20140;-65
2021/09/08 08:36:25;;;;;;;5.95;2.78;;;;;;;;;;4198227;34;20106;-64
2021/09/08 08:38:51;;;;;;;5.50;3.33;;;;;;;;;;4181072;34;20472;-65
2021/09/08 08:41:20;;;;;;;5.03;3.10;;;;;;;;;;4193356;34;20552;-65
2021/09/08 08:43:51;;;;;;;5.30;2.80;;;;;;;;;;4179846;34;20102;-65
2021/09/08 08:46:17;;;;;;;3.67;2.37;;;;;;;;;;4186160;34;20132;-64
2021/09/08 08:48:43;;;;;;;4.80;3.00;;;;;;;;;;4173309;34;20114;-64
2021/09/08 08:51:09;;;;;;;3.08;2.45;;;;;;;;;;4172597;34;21882;-66
2021/09/08 08:53:35;;;;;;;3.92;2.60;;;;;;;;;;4172997;34;20141;-68
2021/09/08 08:56:01;;;;;;;8.15;3.08;;;;;;;;;;4181707;34;20243;-64
2021/09/08 08:58:27;;;;;;;5.00;2.70;;;;;;;;;;4183181;34;20449;-63
2021/09/08 09:01:18;;;;;;;5.22;3.00;;;;;;;;;;4185997;34;20894;-64
2021/09/08 09:04:17;;;;;;;6.55;2.92;;;;;;;;;;4184059;34;20133;-63
2021/09/08 09:06:47;;;;;;;4.62;2.87;;;;;;;;;;4185575;34;20090;-64
2021/09/08 09:09:17;;;;;;;9.30;4.15;;;;;;;;;;4174419;34;20426;-67
2021/09/08 09:11:48;;;;;;;5.82;2.47;;;;;;;;;;4172912;34;20095;-66
2021/09/08 09:14:14;;;;;;;7.80;2.95;;;;;;;;;;4183498;34;20126;-64
2021/09/08 09:16:41;;;;;;;5.35;2.70;;;;;;;;;;4185390;34;20101;-64
2021/09/08 09:19:08;;;;;;;6.30;3.03;;;;;;;;;;4186641;34;20130;-67
2021/09/08 09:21:34;;;;;;;6.37;2.75;;;;;;;;;;4186547;34;20098;-65
2021/09/08 09:24:02;;;;;;;3.70;2.80;;;;;;;;;;4182928;34;20111;-65
2021/09/08 09:26:31;;;;;;;9.40;2.95;;;;;;;;;;4173341;34;20109;-65
2021/09/08 09:29:06;;;;;;;4.12;3.08;;;;;;;;;;4186757;34;20110;-68
2021/09/08 09:31:33;;;;;;;4.65;3.10;;;;;;;;;;4175605;34;20133;-69
2021/09/08 09:33:59;;;;;;;14.20;3.12;;;;;;;;;;4189684;34;20609;-65
2021/09/08 09:36:32;;;;;;;6.10;3.00;;;;;;;;;;4185702;34;20531;-66
2021/09/08 09:38:58;;;;;;;6.65;2.92;;;;;;;;;;4191532;34;20098;-66
2021/09/08 09:41:27;;;;;;;3.70;2.70;;;;;;;;;;4191972;34;20132;-66
2021/09/08 09:44:09;;;;;;;5.70;2.90;;;;;;;;;;4177196;34;20209;-66
2021/09/08 09:46:38;;;;;;;4.53;2.70;;;;;;;;;;4182452;34;20129;-65
2021/09/08 09:49:04;;;;;;;4.62;3.10;;;;;;;;;;4180043;34;20626;-66
2021/09/08 09:51:31;;;;;;;7.53;2.78;;;;;;;;;;4183151;34;20138;-68
2021/09/08 09:54:00;;;;;;;6.20;2.67;;;;;;;;;;4175711;34;20164;-68
2021/09/08 09:56:29;;;;;;;4.45;2.72;;;;;;;;;;4171581;34;20459;-68
2021/09/08 09:58:57;;;;;;;6.12;3.03;;;;;;;;;;4181903;34;20097;-67
2021/09/08 10:01:26;;;;;;;7.80;3.17;;;;;;;;;;4161887;34;20489;-65
2021/09/08 10:04:09;;;;;;;5.50;2.80;;;;;;;;;;4200316;34;20525;-65
2021/09/08 10:06:38;;;;;;;5.43;3.10;;;;;;;;;;4179463;34;20513;-68
2021/09/08 10:09:17;;;;;;;5.95;2.90;;;;;;;;;;4188869;34;20125;-65
2021/09/08 10:11:46;;;;;;;5.45;3.00;;;;;;;;;;4179080;34;20539;-65
2021/09/08 10:14:15;;;;;;;5.93;2.95;;;;;;;;;;4165797;34;20116;-68
2021/09/08 10:16:45;;;;;;;3.50;2.72;;;;;;;;;;4165881;34;20574;-68
2021/09/08 10:19:12;;;;;;;4.03;2.78;;;;;;;;;;4177875;34;20115;-69
2021/09/08 10:21:38;;;;;;;7.10;2.67;;;;;;;;;;4188726;34;20181;-68
2021/09/08 10:24:05;;;;;;;5.37;3.08;;;;;;;;;;4189363;34;20545;-69
2021/09/08 10:26:34;;;;;;;4.32;2.75;;;;;;;;;;4191217;34;20093;-69
2021/09/08 10:29:08;;;;;;;4.10;2.70;;;;;;;;;;4191784;34;20101;-68
2021/09/08 10:34:30;;;;;;;3.37;2.47;;;;;;;;;;4366493;28;20212;-68
2021/09/08 10:37:00;;;;;;;2.92;2.40;;;;;;;;;;4188839;34;20208;-66
2021/09/08 10:39:26;;;;;;;4.18;2.17;;;;;;;;;;4167419;34;20536;-65
2021/09/08 10:41:53;;;;;;;4.97;2.55;;;;;;;;;;4166198;34;20117;-65
2021/09/08 10:44:38;;;;;;;4.85;2.83;;;;;;;;;;4191476;34;20502;-64
2021/09/08 10:47:04;;;;;;;3.37;2.53;;;;;;;;;;4191495;34;20457;-67
2021/09/08 10:49:40;;;;;;;5.28;2.80;;;;;;;;;;4189769;34;20149;-67
2021/09/08 10:52:07;;;;;;;6.68;2.62;;;;;;;;;;4191381;34;20110;-65
2021/09/08 10:54:59;;;;;;;4.43;2.80;;;;;;;;;;4191489;34;20148;-67
2021/09/08 10:57:49;;;;;;;6.78;2.70;;;;;;;;;;4184719;34;20577;-63
2021/09/08 11:00:29;;;;;;;3.90;2.47;;;;;;;;;;4181716;34;20108;-67
2021/09/08 11:02:55;;;;;;;3.80;2.80;;;;;;;;;;4191339;34;20540;-65
2021/09/08 11:05:21;;;;;;;7.72;2.70;;;;;;;;;;4191590;34;20126;-63
2021/09/08 11:07:48;;;;;;;3.35;2.35;;;;;;;;;;4191163;34;20110;-65
2021/09/08 11:10:29;;;;;;;5.45;2.65;;;;;;;;;;4178911;34;20233;-67
2021/09/08 11:12:59;;;;;;;6.37;3.35;;;;;;;;;;4176899;34;20496;-66
2021/09/08 11:15:39;;;;;;;7.20;2.50;;;;;;;;;;4189281;34;20118;-66
2021/09/08 11:18:11;;;;;;;7.87;2.62;;;;;;;;;;4191179;34;20140;-63
2021/09/08 11:20:38;;;;;;;4.57;2.67;;;;;;;;;;4191602;34;20537;-63
2021/09/08 11:23:05;;;;;;;3.97;2.58;;;;;;;;;;4177623;34;20113;-67
2021/09/08 11:25:42;;;;;;;5.00;2.50;;;;;;;;;;4190452;34;20105;-67
2021/09/08 11:28:08;;;;;;;3.83;2.67;;;;;;;;;;4191154;34;20113;-67
2021/09/08 11:30:36;;;;;;;4.75;2.67;;;;;;;;;;4191077;34;20220;-66
2021/09/08 11:33:04;;;;;;;3.67;2.45;;;;;;;;;;4178073;34;20158;-67
2021/09/08 11:35:42;;;;;;;4.07;2.55;;;;;;;;;;4191085;34;20122;-63
2021/09/08 11:38:22;;;;;;;5.00;2.87;;;;;;;;;;4177577;34;20149;-67
2021/09/08 11:40:59;;;;;;;5.72;2.97;;;;;;;;;;4190949;34;20204;-63
2021/09/08 11:43:39;;;;;;;4.80;2.97;;;;;;;;;;4178498;34;20191;-66
2021/09/08 11:46:14;;;;;;;4.85;2.53;;;;;;;;;;4191278;34;20121;-65
2021/09/08 11:48:41;;;;;;;5.20;3.12;;;;;;;;;;4191114;34;20209;-65
2021/09/08 11:51:09;;;;;;;8.50;3.30;;;;;;;;;;4191047;34;20193;-67
2021/09/08 11:53:35;;;;;;;4.82;3.50;;;;;;;;;;4178122;34;20233;-66
2021/09/08 11:56:14;;;;;;;8.45;3.53;;;;;;;;;;4191246;34;20137;-66
2021/09/08 11:58:42;;;;;;;5.55;3.10;;;;;;;;;;4191152;34;20102;-64
2021/09/08 12:01:09;;;;;;;8.50;3.10;;;;;;;;;;4178476;34;20105;-65
2021/09/08 12:03:40;;;;;;;3.67;2.78;;;;;;;;;;4190389;34;20118;-65
2021/09/08 12:06:10;;;;;;;4.57;2.75;;;;;;;;;;4177838;34;20098;-68
2021/09/08 12:08:37;;;;;;;6.18;3.33;;;;;;;;;;4191008;34;20113;-66
2021/09/08 12:11:04;;;;;;;8.23;4.45;;;;;;;;;;4190625;34;20110;-67
2021/09/08 12:13:31;;;;;;;5.62;3.00;;;;;;;;;;4190969;34;20141;-67
2021/09/08 12:15:57;;;;;;;4.57;2.78;;;;;;;;;;4190697;34;20110;-67
2021/09/08 12:18:23;;;;;;;5.32;2.85;;;;;;;;;;4190760;34;20098;-66
2021/09/08 12:20:49;;;;;;;4.55;2.80;;;;;;;;;;4177724;34;20148;-68
2021/09/08 12:23:29;;;;;;;3.67;2.47;;;;;;;;;;4190464;34;20215;-67
2021/09/08 12:26:08;;;;;;;4.62;2.67;;;;;;;;;;4190662;34;20102;-67
2021/09/08 12:28:35;;;;;;;5.18;2.65;;;;;;;;;;4190569;34;20149;-67
2021/09/08 12:31:45;;;;;;;4.35;2.50;;;;;;;;;;4178140;34;20450;-67
2021/09/08 12:34:11;;;;;;;3.75;2.55;;;;;;;;;;4151759;34;20122;-67
2021/09/08 12:36:39;;;;;;;12.95;4.95;;;;;;;;;;4190474;34;20529;-66
2021/09/08 12:39:20;;;;;;;4.45;2.70;;;;;;;;;;4190809;34;20138;-67
2021/09/08 12:41:58;;;;;;;5.15;3.20;;;;;;;;;;4178717;34;20149;-67
2021/09/08 12:44:26;;;;;;;8.15;3.35;;;;;;;;;;4191112;34;20137;-66
2021/09/08 12:46:52;;;;;;;7.47;3.20;;;;;;;;;;4166126;34;20102;-66
2021/09/08 12:49:25;;;;;;;7.40;3.35;;;;;;;;;;4167902;34;20143;-66
2021/09/08 12:51:52;;;;;;;6.47;3.35;;;;;;;;;;4192866;34;20298;-65
2021/09/08 12:54:18;;;;;;;3.33;2.87;;;;;;;;;;4192689;34;20117;-63
2021/09/08 12:56:46;;;;;;;5.45;3.10;;;;;;;;;;4192765;34;20537;-65
2021/09/08 12:59:12;;;;;;;5.65;2.70;;;;;;;;;;4192524;34;20114;-64
2021/09/08 13:01:39;;;;;;;3.40;2.80;;;;;;;;;;4179777;34;20160;-64
2021/09/08 13:04:05;;;;;;;5.60;2.50;;;;;;;;;;4192788;34;20469;-67
2021/09/08 13:06:31;;;;;;;3.58;2.70;;;;;;;;;;4192508;34;20113;-67
2021/09/08 13:08:59;;;;;;;3.10;2.50;;;;;;;;;;4180050;34;20138;-67
2021/09/08 13:11:38;;;;;;;5.25;2.87;;;;;;;;;;4181198;34;20110;-67
2021/09/08 13:14:05;;;;;;;2.87;2.37;;;;;;;;;;4192428;34;20105;-68
2021/09/08 13:16:33;;;;;;;5.47;2.85;;;;;;;;;;4179760;34;20126;-63
2021/09/08 13:18:59;;;;;;;4.95;2.42;;;;;;;;;;4179716;34;20105;-64
2021/09/08 13:21:26;;;;;;;5.47;2.60;;;;;;;;;;4192731;34;20100;-66
2021/09/08 13:23:52;;;;;;;2.67;2.25;;;;;;;;;;4192344;34;20126;-67
2021/09/08 13:26:18;;;;;;;6.37;2.70;;;;;;;;;;4191762;34;20118;-66
2021/09/08 13:29:00;;;;;;;5.97;3.17;;;;;;;;;;4179549;34;20130;-67
2021/09/08 13:31:48;;;;;;;4.25;2.33;;;;;;;;;;4183003;34;20123;-66
2021/09/08 13:34:14;;;;;;;3.50;2.60;;;;;;;;;;4191580;34;20205;-65
2021/09/08 13:36:40;;;;;;;6.60;2.90;;;;;;;;;;4192314;34;20137;-67
2021/09/08 13:39:09;;;;;;;8.43;3.12;;;;;;;;;;4192032;34;20113;-65
2021/09/08 13:41:38;;;;;;;3.70;2.25;;;;;;;;;;4179464;34;20202;-65
2021/09/08 13:44:06;;;;;;;4.87;2.70;;;;;;;;;;4179758;34;20117;-65
2021/09/08 13:46:32;;;;;;;3.30;2.58;;;;;;;;;;4416743;28;20103;-66
2021/09/08 13:48:58;;;;;;;3.90;2.28;;;;;;;;;;4164325;34;20118;-65
2021/09/08 13:51:24;;;;;;;4.80;2.50;;;;;;;;;;4164454;34;20105;-61
2021/09/08 13:53:51;;;;;;;3.15;2.65;;;;;;;;;;4152137;34;20126;-63
2021/09/08 13:56:17;;;;;;;7.75;2.47;;;;;;;;;;4152267;34;20137;-63
2021/09/08 13:58:43;;;;;;;4.90;2.75;;;;;;;;;;4164304;34;20118;-65
2021/09/08 14:01:11;;;;;;;3.47;2.40;;;;;;;;;;4164132;34;21399;-63
2021/09/08 14:03:38;;;;;;;3.75;2.60;;;;;;;;;;4178765;34;20092;-64
2021/09/08 14:06:03;;;;;;;6.20;3.33;;;;;;;;;;4188046;34;20181;-63
2021/09/08 14:08:32;;;;;;;6.90;2.85;;;;;;;;;;4162707;34;20447;-61
2021/09/08 14:10:57;;;;;;;4.57;2.65;;;;;;;;;;4151644;34;20115;-61
2021/09/08 14:13:23;;;;;;;7.87;2.67;;;;;;;;;;4164437;34;20226;-60
2021/09/08 14:15:49;;;;;;;4.40;2.70;;;;;;;;;;4164216;34;20610;-61
2021/09/08 14:18:15;;;;;;;10.52;2.70;;;;;;;;;;4164159;34;20285;-61
2021/09/08 14:20:41;;;;;;;11.30;4.55;;;;;;;;;;4164334;34;20137;-60
2021/09/08 14:23:09;;;;;;;7.30;2.50;;;;;;;;;;4164064;34;20192;-61
2021/09/08 14:25:36;;;;;;;8.77;3.10;;;;;;;;;;4164347;34;20130;-61
2021/09/08 14:28:02;;;;;;;4.25;2.90;;;;;;;;;;4164076;34;20603;-61
2021/09/08 14:30:29;;;;;;;7.07;2.65;;;;;;;;;;4164191;34;20111;-60
2021/09/08 14:32:55;;;;;;;3.25;2.55;;;;;;;;;;4163950;34;20102;-61
2021/09/08 14:35:21;;;;;;;5.05;2.92;;;;;;;;;;4169387;34;20138;-61
2021/09/08 14:37:47;;;;;;;7.47;2.55;;;;;;;;;;4153632;34;20187;-65
2021/09/08 14:40:14;;;;;;;4.15;2.50;;;;;;;;;;4151445;34;20177;-69
2021/09/08 14:42:40;;;;;;;3.97;2.70;;;;;;;;;;4164247;34;20090;-70
2021/09/08 14:45:07;;;;;;;9.55;3.12;;;;;;;;;;4164238;34;20127;-70
2021/09/08 14:47:34;;;;;;;6.95;2.85;;;;;;;;;;4163714;34;20126;-69
2021/09/08 14:50:00;;;;;;;5.37;2.65;;;;;;;;;;4163768;34;20087;-70
2021/09/08 14:52:26;;;;;;;6.47;2.60;;;;;;;;;;4141956;34;20170;-69
2021/09/08 14:54:54;;;;;;;4.65;2.58;;;;;;;;;;4165618;34;20538;-69
2021/09/08 14:57:20;;;;;;;4.03;2.92;;;;;;;;;;4168124;34;20111;-68
2021/09/08 14:59:47;;;;;;;6.47;2.80;;;;;;;;;;4176313;34;20134;-68
2021/09/08 15:02:13;;;;;;;11.65;2.75;;;;;;;;;;4177482;34;20097;-70
2021/09/08 15:04:41;;;;;;;11.45;3.53;;;;;;;;;;4171707;34;20114;-68
2021/09/08 15:07:08;;;;;;;8.32;4.25;;;;;;;;;;4170060;34;20111;-69
2021/09/08 15:09:35;;;;;;;7.10;2.90;;;;;;;;;;4164035;34;20142;-65